Aérodrome :
LOGIN :

S'inscrire | Disclaimer

   EN    FR    IT 

 










Légende :    VFR   VFR Marginal   IFR   IFR Intensif   IFR Très Intensif
Visi : 
Plafond : 
>= 8 km
>= 3000ft
5 à 8 km
1000 à 3000 ft
1500m à 5 km
500 à 1000 ft
800 à 1500m
200 à 500 ft
< 800m
< 200 ft
Symboles :   Orages  Brouillard  Fortes neiges  Fortes précipitations  Vent > 20 kt
SIGMETs :   Divers  Orages  Givrage  Turbulence  Onde Orograph.  Cendres Volcan.







- Altitude de l'aérodrome : 12 ft
- Code IATA : BCN


LEBL - Barcelone

DERNIER METAR :
  • 180300Z 34007KT 9999 FEW042 18/15 Q1017 NOSIG

METARs EXPIRÉS :
  • 180230Z 34006KT 9999 FEW042 19/15 Q1017 NOSIG
  • 180200Z 33006KT 9999 BKN040 19/15 Q1018 NOSIG
  • 180130Z 32005KT 9999 FEW030 BKN046 18/15 Q1018 NOSIG
  • 180100Z 33007KT 9999 FEW030 SCT046 18/15 Q1018 NOSIG
  • 180030Z 34007KT 9999 BKN046 18/15 Q1019 NOSIG

TAF TAF LEBL
Valide du 18 à 00h jusqu'au 19 à 00h UTC


172300Z 1800/1824 33006KT 9999 SCT018 SCT030 TX23/1812Z TN17/1806Z
BECMG 1809/1811 16008KT
BECMG 1816/1818 10008KT
PROB30
TEMPO 1803/1815 4000 TSRA BKN018 FEW020CB
PROB40
TEMPO 1815/1824 3000 +TSRA BKN014 SCT020CB
Pas de NOTAMs connus pour ce terrain.



MET'MAP, la Météo Aéronautique d'un coup d'oeil ! - Copyright ORBIFLY Décembre 2007 - Disclaimer

ORBIFLY MET'MAP TEAM :

Programmation & Développement : Alexandra Zaïnal
Conception & Développement : Baudouin d'Aumeries
Co-Programmation & Développement : Marc-Olivier Méhu
Soutien technique & logistique : Manuel Goepfert

Contact : metmap@orbifly.com




SOURCES & CREDITS :

   NOAA